This demonstration page uses our WeatherBlox Daily Observations layout. Learn more.

38.88101, -77.10428

Hourly Observations for August 19, 2016

Temp ( °F °C ) Dew Point ( °F °C ) Humidity (%) Winds ( mph kmh ) Pressure ( in mb ) Visibility ( mi km ) Precip ( " mm )
12:52 am 00:52 Mostly Cloudy 80 26.7 72 22.2 76 76 W 7 11 29.97 1015 10 16.09344 0 0
1:52 am 01:52 Partly Cloudy 79 26.1 72 22.2 79 79 SW 5 7 29.97 1015 10 16.09344 0 0
2:52 am 02:52 Partly Cloudy 79 26.1 68 20 69 69 Calm 29.97 1015 10 16.09344 0 0
3:52 am 03:52 Partly Cloudy 77 25 66 18.9 69 69 NNW 8 13 29.97 1015 10 16.09344 0 0
4:52 am 04:52 Partly Cloudy 76 24.4 66 18.9 72 72 NNW 3 6 29.97 1015 10 16.09344 0 0
5:52 am 05:52 Partly Cloudy 75 23.9 67 19.4 76 76 NNW 8 13 30 1016 10 16.09344 0 0
6:52 am 06:52 Partly Cloudy 76 24.4 66 18.9 72 72 NNW 5 7 30 1016 10 16.09344 0 0
7:52 am 07:52 Partly Cloudy 79 26.1 67 19.4 67 67 NNW 6 9 30 1016 10 16.09344 0 0
8:52 am 08:52 Mostly Cloudy 81 27.2 68 20 65 65 N 5 7 30 1016 10 16.09344 0 0
9:52 am 09:52 Mostly Cloudy 84 28.9 67 19.4 57 57 N 6 9 30 1016 10 16.09344 0 0
10:52 am 10:52 Mostly Cloudy 86 30 65 18.3 49 49 N 7 11 30 1016 10 16.09344 0 0
11:52 am 11:52 Mostly Cloudy 88 31.1 64 17.8 45 45 N 3 6 30 1016 10 16.09344 0 0
12:52 pm 12:52 Cloudy 89 31.7 64 17.8 43 43 N 6 9 29.97 1015 10 16.09344 0 0
1:52 pm 13:52 Cloudy 88 31.1 63 17.2 43 43 Calm 29.97 1015 10 16.09344 0 0
2:52 pm 14:52 Mostly Cloudy 90 32.2 62 16.7 39 39 NNE 8 13 29.94 1014 10 16.09344 0 0
3:52 pm 15:52 Mostly Cloudy 91 32.8 60 15.6 35 35 NNW 10 17 29.91 1013 10 16.09344 0 0
4:52 pm 16:52 Mostly Cloudy 90 32.2 61 16.1 38 38 NNW 7 11 29.91 1013 10 16.09344 0 0
5:52 pm 17:52 Mostly Cloudy 90 32.2 62 16.7 39 39 Calm 29.91 1013 10 16.09344 0 0
6:52 pm 18:52 Mostly Cloudy 87 30.6 60 15.6 40 40 N 7 11 29.91 1013 10 16.09344 0 0
7:52 pm 19:52 Mostly Cloudy 84 28.9 61 16.1 46 46 N 6 9 29.91 1013 10 16.09344 0 0
8:52 pm 20:52 Partly Cloudy 84 28.9 63 17.2 49 49 E 6 9 29.91 1013 10 16.09344 0 0
9:52 pm 21:52 Partly Cloudy 81 27.2 70 21.1 69 69 SE 5 7 29.94 1014 10 16.09344 0 0
10:52 pm 22:52 Mostly Clear 80 26.7 69 20.6 69 69 S 6 9 29.94 1014 10 16.09344 0 0
11:52 pm 23:52 Partly Cloudy 80 26.7 71 21.7 74 74 SSW 3 6 29.94 1014 10 16.09344 0 0

Powered by AerisWeather